createdAt,value
2022-09-07T00:02:23.894Z,100188.91
2022-09-07T00:04:50.518Z,100195.97
2022-09-07T00:07:17.099Z,100187.97
2022-09-07T00:09:43.694Z,100199.22
2022-09-07T00:12:10.310Z,100199.84
2022-09-07T00:14:36.882Z,100194.88
2022-09-07T00:17:03.546Z,100199.84
2022-09-07T00:19:30.145Z,100197.22
2022-09-07T00:21:56.761Z,100188.66
2022-09-07T00:24:23.419Z,100196.31
2022-09-07T00:26:49.951Z,100191.16
2022-09-07T00:29:16.551Z,100175.44
2022-09-07T00:31:43.143Z,100177.06
2022-09-07T00:34:09.699Z,100189.88
2022-09-07T00:36:36.275Z,100180.50
2022-09-07T00:39:03.309Z,100182.91
2022-09-07T00:41:29.987Z,100176.13
2022-09-07T00:43:59.681Z,100189.75
2022-09-07T00:46:29.043Z,100163.75
2022-09-07T00:49:03.338Z,100175.81
2022-09-07T00:51:33.578Z,100181.41
2022-09-07T00:54:08.953Z,100172.94
2022-09-07T00:56:39.461Z,100184.13
2022-09-07T00:59:06.565Z,100183.22
2022-09-07T01:01:34.335Z,100174.69
2022-09-07T01:04:02.144Z,100173.69
2022-09-07T01:06:34.978Z,100167.78
2022-09-07T01:09:07.051Z,100174.63
2022-09-07T01:11:35.092Z,100165.97
2022-09-07T01:14:03.807Z,100161.50
2022-09-07T01:16:59.029Z,100157.84
2022-09-07T01:20:01.132Z,100154.25
2022-09-07T01:22:33.716Z,100151.03
2022-09-07T01:25:03.339Z,100153.66
2022-09-07T01:28:08.055Z,100142.56
2022-09-07T01:30:41.987Z,100149.28
2022-09-07T01:33:42.347Z,100154.38
2022-09-07T01:36:33.072Z,100149.88
2022-09-07T01:39:02.651Z,100153.88
2022-09-07T01:41:42.776Z,100147.97
2022-09-07T01:44:21.847Z,100139.31
2022-09-07T01:46:58.768Z,100147.97
2022-09-07T01:49:41.132Z,100137.91
2022-09-07T01:52:20.038Z,100137.91
2022-09-07T01:55:01.159Z,100139.09
2022-09-07T01:57:34.538Z,100135.72
2022-09-07T02:00:09.730Z,100134.88
2022-09-07T02:02:45.965Z,100139.09
2022-09-07T02:05:25.402Z,100135.53
2022-09-07T02:08:03.136Z,100138.97
2022-09-07T02:10:51.728Z,100137.22
2022-09-07T02:13:28.053Z,100134.59
2022-09-07T02:16:22.244Z,100137.09
2022-09-07T02:18:53.625Z,100130.94
2022-09-07T02:21:24.172Z,100123.00
2022-09-07T02:23:56.818Z,100138.56
2022-09-07T02:26:27.744Z,100139.16
2022-09-07T02:28:54.374Z,100127.00
2022-09-07T02:31:21.250Z,100134.41
2022-09-07T02:33:48.251Z,100123.56
2022-09-07T02:36:18.197Z,100126.09
2022-09-07T02:38:46.100Z,100120.13
2022-09-07T02:41:31.502Z,100130.00
2022-09-07T02:43:58.758Z,100126.53
2022-09-07T02:47:03.805Z,100125.69
2022-09-07T02:49:57.215Z,100128.22
2022-09-07T02:52:44.435Z,100120.59
2022-09-07T02:55:34.232Z,100128.75
2022-09-07T02:58:03.569Z,100128.75
2022-09-07T03:00:36.982Z,100124.44
2022-09-07T03:03:12.339Z,100119.78
2022-09-07T03:05:52.377Z,100129.97
2022-09-07T03:08:20.989Z,100118.75
2022-09-07T03:10:49.069Z,100125.63
2022-09-07T03:13:25.076Z,100116.31
2022-09-07T03:15:55.696Z,100120.44
2022-09-07T03:18:24.318Z,100121.25
2022-09-07T03:20:51.174Z,100121.97
2022-09-07T03:23:17.903Z,100122.66
2022-09-07T03:25:44.525Z,100124.47
2022-09-07T03:28:11.509Z,100118.56
2022-09-07T03:30:42.279Z,100114.13
2022-09-07T03:33:08.850Z,100125.47
2022-09-07T03:35:35.660Z,100107.31
2022-09-07T03:38:02.211Z,100130.56
2022-09-07T03:40:28.892Z,100116.03
2022-09-07T03:42:55.577Z,100123.75
2022-09-07T03:45:22.143Z,100119.38
2022-09-07T03:47:49.384Z,100110.66
2022-09-07T03:50:16.082Z,100114.13
2022-09-07T03:52:42.637Z,100116.50
2022-09-07T03:55:09.345Z,100122.44
2022-09-07T03:57:36.146Z,100117.44
2022-09-07T04:00:05.014Z,100115.69
2022-09-07T04:02:31.616Z,100114.81
2022-09-07T04:04:58.247Z,100124.31
2022-09-07T04:07:24.795Z,100127.81
2022-09-07T04:09:51.438Z,100123.66
2022-09-07T04:12:18.106Z,100124.75
2022-09-07T04:14:44.812Z,100117.03
2022-09-07T04:17:11.410Z,100127.69
2022-09-07T04:19:38.059Z,100129.50
2022-09-07T04:22:04.703Z,100122.59
2022-09-07T04:24:31.246Z,100128.03
2022-09-07T04:26:57.965Z,100135.22
2022-09-07T04:29:24.583Z,100138.06
2022-09-07T04:31:51.134Z,100136.56
2022-09-07T04:34:17.778Z,100136.72
2022-09-07T04:36:44.344Z,100134.50
2022-09-07T04:39:11.384Z,100139.81
2022-09-07T04:41:38.026Z,100135.88
2022-09-07T04:44:04.969Z,100135.13
2022-09-07T04:46:36.650Z,100139.59
2022-09-07T04:49:07.034Z,100122.50
2022-09-07T04:51:33.728Z,100138.38
2022-09-07T04:54:02.514Z,100141.19
2022-09-07T04:56:30.354Z,100140.38
2022-09-07T04:58:56.944Z,100133.66
2022-09-07T05:01:25.222Z,100130.19
2022-09-07T05:03:52.541Z,100139.00
2022-09-07T05:06:20.677Z,100141.75
2022-09-07T05:08:49.896Z,100142.00
2022-09-07T05:11:18.092Z,100138.88
2022-09-07T05:13:45.147Z,100129.78
2022-09-07T05:16:17.422Z,100137.69
2022-09-07T05:18:45.278Z,100135.50
2022-09-07T05:21:14.897Z,100131.56
2022-09-07T05:23:42.173Z,100119.03
2022-09-07T05:26:09.965Z,100123.22
2022-09-07T05:28:36.655Z,100126.31
2022-09-07T05:36:38.656Z,100120.81
2022-09-07T05:39:06.893Z,100123.94
2022-09-07T05:41:33.900Z,100121.91
2022-09-07T05:46:49.183Z,100124.75
2022-09-07T05:49:15.745Z,100124.28
2022-09-07T05:51:42.312Z,100110.00
2022-09-07T05:54:11.081Z,100127.69
2022-09-07T05:56:37.834Z,100118.63
2022-09-07T05:59:04.827Z,100129.50
2022-09-07T06:01:31.964Z,100132.50
2022-09-07T06:03:58.849Z,100125.09
2022-09-07T06:06:25.431Z,100128.91
2022-09-07T06:08:53.996Z,100136.88
2022-09-07T06:11:25.008Z,100136.44
2022-09-07T06:13:52.010Z,100135.19
2022-09-07T06:16:20.130Z,100132.19
2022-09-07T06:18:48.514Z,100139.56
2022-09-07T06:21:20.228Z,100139.03
2022-09-07T06:23:48.350Z,100138.53
2022-09-07T06:26:16.573Z,100128.44
2022-09-07T06:28:48.853Z,100127.97
2022-09-07T06:31:19.591Z,100129.03
2022-09-07T06:33:50.334Z,100136.25
2022-09-07T06:36:21.698Z,100128.63
2022-09-07T06:38:49.352Z,100134.06
2022-09-07T06:44:06.594Z,100138.72
2022-09-07T06:49:19.905Z,100130.72
2022-09-07T06:51:46.572Z,100134.38
2022-09-07T06:56:59.762Z,100132.94
2022-09-07T06:59:26.411Z,100140.81
2022-09-07T07:01:52.969Z,100131.44
2022-09-07T07:04:19.602Z,100136.75
2022-09-07T07:06:46.187Z,100126.53
2022-09-07T07:09:14.061Z,100141.41
2022-09-07T07:11:43.534Z,100131.19
2022-09-07T07:14:19.334Z,100136.38
2022-09-07T07:16:46.784Z,100132.19
2022-09-07T07:19:13.541Z,100137.47
2022-09-07T07:22:03.569Z,100128.09
2022-09-07T07:24:26.669Z,100134.22
2022-09-07T07:26:53.548Z,100130.91
2022-09-07T07:29:21.899Z,100131.03
2022-09-07T07:31:49.381Z,100125.94
2022-09-07T07:34:15.977Z,100124.28
2022-09-07T07:36:42.549Z,100121.75
2022-09-07T07:41:58.739Z,100116.75
2022-09-07T07:44:28.341Z,100114.25
2022-09-07T07:46:54.942Z,100126.47
2022-09-07T07:49:21.686Z,100118.03
2022-09-07T07:54:37.584Z,100113.94
2022-09-07T07:57:05.671Z,100120.06
2022-09-07T07:59:32.269Z,100113.22
2022-09-07T08:02:04.417Z,100115.88
2022-09-07T08:04:40.534Z,100115.03
2022-09-07T08:07:10.814Z,100107.31
2022-09-07T08:09:39.686Z,100108.22
2022-09-07T08:12:06.422Z,100113.50
2022-09-07T08:14:32.957Z,100111.03
2022-09-07T08:16:59.484Z,100105.88
2022-09-07T08:19:26.110Z,100102.47
2022-09-07T08:21:53.039Z,100094.78
2022-09-07T08:24:19.600Z,100088.78
2022-09-07T08:26:47.676Z,100092.31
2022-09-07T08:29:14.663Z,100087.28
2022-09-07T08:31:41.240Z,100093.38
2022-09-07T08:34:07.971Z,100079.56
2022-09-07T08:36:34.477Z,100084.75
2022-09-07T08:39:01.104Z,100088.31
2022-09-07T08:41:33.781Z,100081.50
2022-09-07T08:44:11.423Z,100087.53
2022-09-07T08:46:40.408Z,100076.31
2022-09-07T08:49:20.404Z,100076.38
2022-09-07T08:52:00.485Z,100076.47
2022-09-07T08:54:27.599Z,100064.41
2022-09-07T08:59:57.518Z,100061.06
2022-09-07T09:02:27.862Z,100052.47
2022-09-07T09:08:09.319Z,100055.13
2022-09-07T09:10:42.030Z,100047.44
2022-09-07T09:13:23.977Z,100050.91
2022-09-07T09:16:13.742Z,100044.06
2022-09-07T09:18:43.030Z,100044.91
2022-09-07T09:21:15.207Z,100038.81
2022-09-07T09:23:44.794Z,100046.56
2022-09-07T09:26:18.080Z,100038.78
2022-09-07T09:28:44.597Z,100043.13
2022-09-07T09:31:17.963Z,100031.09
2022-09-07T09:33:44.787Z,100033.75
2022-09-07T09:36:31.155Z,100033.84
2022-09-07T09:38:57.550Z,100034.72
2022-09-07T09:41:23.919Z,100023.56
2022-09-07T09:43:54.578Z,100016.66
2022-09-07T09:46:36.048Z,100010.66
2022-09-07T09:49:28.233Z,100008.06
2022-09-07T09:54:48.647Z,100007.28
2022-09-07T09:57:16.913Z,100009.88
2022-09-07T10:00:02.722Z,99998.63
2022-09-07T10:05:33.258Z,99999.53
2022-09-07T10:07:59.924Z,99999.53
2022-09-07T10:10:28.194Z,100003.88
2022-09-07T10:12:55.936Z,99990.94
2022-09-07T10:15:39.971Z,99997.00
2022-09-07T10:18:16.691Z,99998.69
2022-09-07T10:20:43.036Z,99992.69
2022-09-07T10:23:19.604Z,99990.09
2022-09-07T10:25:47.485Z,99981.44
2022-09-07T10:28:22.144Z,99971.06
2022-09-07T10:30:55.091Z,99990.91
2022-09-07T10:33:36.048Z,99979.69
2022-09-07T10:36:05.353Z,99993.50
2022-09-07T10:38:40.306Z,99979.66
2022-09-07T10:41:09.745Z,99986.53
2022-09-07T10:43:43.709Z,99972.63
2022-09-07T10:49:17.813Z,99961.22
2022-09-07T10:51:57.656Z,99960.28
2022-09-07T10:55:10.156Z,99955.03
2022-09-07T10:57:48.932Z,99955.84
2022-09-07T11:00:18.764Z,99946.38
2022-09-07T11:03:24.865Z,99947.19
2022-09-07T11:06:26.096Z,99944.66
2022-09-07T11:09:17.501Z,99946.31
2022-09-07T11:12:01.815Z,99942.81
2022-09-07T11:14:32.234Z,99938.44
2022-09-07T11:17:04.348Z,99948.72
2022-09-07T11:19:39.800Z,99937.38
2022-09-07T11:22:12.353Z,99932.75
2022-09-07T11:27:51.186Z,99925.13
2022-09-07T11:30:35.854Z,99918.91
2022-09-07T11:33:11.139Z,99916.94
2022-09-07T11:35:50.520Z,99915.91
2022-09-07T11:38:35.408Z,99909.53
2022-09-07T11:41:20.042Z,99906.53
2022-09-07T11:44:09.801Z,99905.13
2022-09-07T11:46:45.002Z,99910.94
2022-09-07T11:49:19.225Z,99903.88
2022-09-07T11:52:05.819Z,99905.09
2022-09-07T11:54:48.875Z,99892.78
2022-09-07T11:57:15.363Z,99904.44
2022-09-07T11:59:56.585Z,99879.28
2022-09-07T12:02:59.794Z,99876.34
2022-09-07T12:05:45.496Z,99875.72
2022-09-07T12:08:42.963Z,99872.34
2022-09-07T12:11:24.629Z,99873.00
2022-09-07T12:14:15.417Z,99873.09
2022-09-07T12:16:44.797Z,99869.22
2022-09-07T12:19:23.435Z,99859.94
2022-09-07T12:21:52.966Z,99848.97
2022-09-07T12:24:43.053Z,99851.31
2022-09-07T12:27:12.226Z,99857.91
2022-09-07T12:29:45.087Z,99844.00
2022-09-07T12:34:59.027Z,99846.56
2022-09-07T12:37:40.061Z,99847.84
2022-09-07T12:40:32.191Z,99846.91
2022-09-07T12:43:14.064Z,99847.75
2022-09-07T12:45:40.554Z,99834.03
2022-09-07T12:48:10.103Z,99838.56
2022-09-07T12:50:51.084Z,99831.19
2022-09-07T12:53:26.729Z,99834.88
2022-09-07T12:56:18.525Z,99834.03
2022-09-07T12:59:17.497Z,99827.19
2022-09-07T13:02:20.470Z,99821.84
2022-09-07T13:04:53.074Z,99826.75
2022-09-07T13:07:46.387Z,99825.00
2022-09-07T13:10:28.539Z,99818.44
2022-09-07T13:13:01.724Z,99823.50
2022-09-07T13:15:48.899Z,99818.50
2022-09-07T13:18:27.801Z,99816.28
2022-09-07T13:21:09.472Z,99812.38
2022-09-07T13:23:38.053Z,99807.94
2022-09-07T13:26:08.629Z,99815.34
2022-09-07T13:28:58.389Z,99818.31
2022-09-07T13:31:30.958Z,99798.31
2022-09-07T13:33:57.564Z,99791.03
2022-09-07T13:36:45.273Z,99802.44
2022-09-07T13:39:15.880Z,99793.59
2022-09-07T13:41:50.335Z,99799.78
2022-09-07T13:44:25.600Z,99798.59
2022-09-07T13:46:58.739Z,99797.38
2022-09-07T13:49:47.098Z,99790.13
2022-09-07T13:52:16.350Z,99793.31
2022-09-07T13:55:44.595Z,99794.13
2022-09-07T13:58:18.013Z,99786.13
2022-09-07T14:00:54.551Z,99778.34
2022-09-07T14:03:23.587Z,99785.53
2022-09-07T14:06:13.736Z,99788.19
2022-09-07T14:08:41.305Z,99792.50
2022-09-07T14:11:22.524Z,99791.69
2022-09-07T14:14:18.672Z,99779.94
2022-09-07T14:17:07.442Z,99779.59
2022-09-07T14:19:41.018Z,99787.06
2022-09-07T14:22:21.627Z,99790.00
2022-09-07T14:24:50.781Z,99793.41
2022-09-07T14:27:35.965Z,99789.25
2022-09-07T14:30:28.254Z,99782.97
2022-09-07T14:33:02.131Z,99783.69
2022-09-07T14:35:33.560Z,99779.63
2022-09-07T14:41:20.252Z,99765.38
2022-09-07T14:43:58.303Z,99771.78
2022-09-07T14:46:29.039Z,99762.16
2022-09-07T14:48:57.903Z,99768.13
2022-09-07T14:51:35.643Z,99773.78
2022-09-07T14:54:07.672Z,99763.19
2022-09-07T14:56:35.708Z,99762.38
2022-09-07T14:59:02.345Z,99749.81
2022-09-07T15:01:37.906Z,99757.13
2022-09-07T15:04:18.447Z,99751.97
2022-09-07T15:07:02.255Z,99755.28
2022-09-07T15:09:36.943Z,99753.53
2022-09-07T15:12:15.695Z,99751.44
2022-09-07T15:14:42.426Z,99750.81
2022-09-07T15:17:46.409Z,99753.66
2022-09-07T15:20:35.103Z,99754.47
2022-09-07T15:23:10.137Z,99753.56
2022-09-07T15:25:37.221Z,99747.06
2022-09-07T15:28:04.575Z,99747.38
2022-09-07T15:30:31.197Z,99745.69
2022-09-07T15:32:58.067Z,99737.56
2022-09-07T15:35:24.784Z,99743.31
2022-09-07T15:38:59.539Z,99736.75
2022-09-07T15:41:10.642Z,99733.53
2022-09-07T15:43:30.693Z,99725.81
2022-09-07T15:45:57.422Z,99728.16
2022-09-07T15:48:25.181Z,99734.22
2022-09-07T15:51:00.098Z,99738.31
2022-09-07T15:56:14.092Z,99733.13
2022-09-07T15:58:43.164Z,99739.63
2022-09-07T16:03:59.075Z,99730.34
2022-09-07T16:06:26.383Z,99732.25
2022-09-07T16:08:53.477Z,99728.63
2022-09-07T16:11:25.508Z,99724.53
2022-09-07T16:13:57.346Z,99726.88
2022-09-07T16:17:26.670Z,99732.22
2022-09-07T16:19:14.624Z,99738.06
2022-09-07T16:21:42.822Z,99729.19
2022-09-07T16:24:09.697Z,99734.06
2022-09-07T16:26:36.286Z,99729.44
2022-09-07T16:29:03.452Z,99730.91
2022-09-07T16:31:31.151Z,99734.97
2022-09-07T16:33:58.195Z,99734.59
2022-09-07T16:36:24.763Z,99735.13
2022-09-07T16:39:00.647Z,99742.47
2022-09-07T16:41:31.775Z,99737.09
2022-09-07T16:43:59.220Z,99740.09
2022-09-07T16:46:28.994Z,99739.56
2022-09-07T16:48:55.633Z,99741.81
2022-09-07T16:51:23.959Z,99742.09
2022-09-07T16:53:53.236Z,99747.75
2022-09-07T16:56:22.813Z,99754.91
2022-09-07T16:58:52.433Z,99752.47
2022-09-07T17:01:21.831Z,99755.34
2022-09-07T17:03:49.574Z,99758.13
2022-09-07T17:06:17.402Z,99763.50
2022-09-07T17:08:44.286Z,99758.53
2022-09-07T17:11:12.499Z,99762.06
2022-09-07T17:13:40.617Z,99762.22
2022-09-07T17:16:16.401Z,99762.38
2022-09-07T17:21:36.430Z,99755.69
2022-09-07T17:24:05.291Z,99754.13
2022-09-07T17:26:33.126Z,99755.94
2022-09-07T17:29:00.899Z,99756.00
2022-09-07T17:34:24.634Z,99753.59
2022-09-07T17:36:51.687Z,99763.13
2022-09-07T17:39:19.268Z,99757.97
2022-09-07T17:41:47.876Z,99756.31
2022-09-07T17:44:15.106Z,99751.13
2022-09-07T17:46:41.646Z,99753.75
2022-09-07T17:49:12.137Z,99764.97
2022-09-07T17:51:39.196Z,99767.56
2022-09-07T17:54:10.935Z,99770.13
2022-09-07T17:56:38.653Z,99766.69
2022-09-07T18:01:54.163Z,99758.91
2022-09-07T18:04:21.446Z,99763.22
2022-09-07T18:06:48.379Z,99759.75
2022-09-07T18:09:15.786Z,99767.50
2022-09-07T18:11:46.688Z,99752.84
2022-09-07T18:14:15.102Z,99766.63
2022-09-07T18:16:43.381Z,99769.16
2022-09-07T18:19:11.210Z,99766.50
2022-09-07T18:21:39.358Z,99759.59
2022-09-07T18:24:13.884Z,99762.16
2022-09-07T18:26:41.059Z,99757.81
2022-09-07T18:29:25.869Z,99757.78
2022-09-07T18:31:54.235Z,99762.00
2022-09-07T18:34:20.993Z,99759.34
2022-09-07T18:36:47.959Z,99749.78
2022-09-07T18:39:14.667Z,99745.44
2022-09-07T18:41:42.214Z,99754.06
2022-09-07T18:45:27.052Z,99752.31
2022-09-07T18:46:58.313Z,99755.72
2022-09-07T18:49:25.195Z,99757.41
2022-09-07T18:54:39.430Z,99753.81
2022-09-07T18:57:06.991Z,99754.63
2022-09-07T18:59:33.932Z,99749.41
2022-09-07T19:02:04.299Z,99752.81
2022-09-07T19:07:20.343Z,99748.41
2022-09-07T19:09:48.073Z,99753.53
2022-09-07T19:12:14.849Z,99748.28
2022-09-07T19:14:42.223Z,99748.25
2022-09-07T19:17:10.860Z,99749.09
2022-09-07T19:19:38.352Z,99753.34
2022-09-07T19:22:05.138Z,99749.88
2022-09-07T19:24:34.348Z,99754.97
2022-09-07T19:27:01.373Z,99751.53
2022-09-07T19:29:29.103Z,99753.19
2022-09-07T19:32:05.024Z,99748.81
2022-09-07T19:34:37.119Z,99745.31
2022-09-07T19:37:05.698Z,99744.44
2022-09-07T19:39:32.708Z,99754.63
2022-09-07T19:41:59.338Z,99753.72
2022-09-07T19:44:26.211Z,99759.72
2022-09-07T19:46:52.785Z,99758.78
2022-09-07T19:49:19.747Z,99759.59
2022-09-07T19:51:48.145Z,99759.50
2022-09-07T19:54:15.038Z,99754.25
2022-09-07T19:56:42.816Z,99765.34
2022-09-07T19:59:09.783Z,99761.88
2022-09-07T20:01:37.650Z,99756.50
2022-09-07T20:04:07.420Z,99746.94
2022-09-07T20:06:37.021Z,99762.38
2022-09-07T20:09:03.637Z,99755.47
2022-09-07T20:11:32.184Z,99756.19
2022-09-07T20:13:59.003Z,99753.59
2022-09-07T20:16:26.193Z,99759.53
2022-09-07T20:18:52.862Z,99763.75
2022-09-07T20:21:22.052Z,99765.47
2022-09-07T20:23:48.938Z,99764.59
2022-09-07T20:26:17.343Z,99763.69
2022-09-07T20:28:44.113Z,99767.91
2022-09-07T20:31:13.667Z,99770.44
2022-09-07T20:33:41.754Z,99767.84
2022-09-07T20:36:14.294Z,99760.00
2022-09-07T20:38:42.799Z,99763.31
2022-09-07T20:41:14.222Z,99759.81
2022-09-07T20:43:40.763Z,99758.03
2022-09-07T20:46:09.650Z,99762.28
2022-09-07T20:48:39.748Z,99760.53
2022-09-07T20:51:09.549Z,99757.06
2022-09-07T20:53:37.114Z,99763.78
2022-09-07T20:56:06.935Z,99767.19
2022-09-07T20:58:35.294Z,99775.69
2022-09-07T21:01:03.346Z,99776.44
2022-09-07T21:03:30.270Z,99776.41
2022-09-07T21:06:05.209Z,99781.41
2022-09-07T21:08:36.812Z,99776.13
2022-09-07T21:11:18.474Z,99768.28
2022-09-07T21:13:45.193Z,99762.22
2022-09-07T21:16:14.206Z,99769.00
2022-09-07T21:18:41.729Z,99765.56
2022-09-07T21:21:23.684Z,99768.13
2022-09-07T21:23:55.819Z,99766.34
2022-09-07T21:26:22.541Z,99753.41
2022-09-07T21:28:57.454Z,99763.81
2022-09-07T21:31:24.803Z,99765.50
2022-09-07T21:33:56.286Z,99757.72
2022-09-07T21:36:23.014Z,99760.22
2022-09-07T21:38:50.069Z,99753.31
2022-09-07T21:41:19.275Z,99749.81
2022-09-07T21:43:46.088Z,99761.88
2022-09-07T21:46:15.713Z,99756.72
2022-09-07T21:48:43.291Z,99749.88
2022-09-07T21:51:10.172Z,99748.94
2022-09-07T21:53:36.803Z,99748.06
2022-09-07T21:56:09.478Z,99752.34
2022-09-07T21:58:36.215Z,99750.59
2022-09-07T22:01:16.445Z,99741.09
2022-09-07T22:03:48.040Z,99752.31
2022-09-07T22:06:15.211Z,99743.59
2022-09-07T22:08:42.617Z,99750.50
2022-09-07T22:11:12.009Z,99748.78
2022-09-07T22:13:39.458Z,99749.59
2022-09-07T22:16:06.917Z,99746.88
2022-09-07T22:18:34.578Z,99755.47
2022-09-07T22:21:24.201Z,99754.56
2022-09-07T22:23:53.093Z,99741.63
2022-09-07T22:26:22.092Z,99735.56
2022-09-07T22:28:49.028Z,99740.75
2022-09-07T22:31:20.419Z,99726.91
2022-09-07T22:33:48.877Z,99734.72
2022-09-07T22:36:18.885Z,99738.19
2022-09-07T22:38:47.297Z,99735.59
2022-09-07T22:41:23.433Z,99733.03
2022-09-07T22:43:51.029Z,99737.16
2022-09-07T22:46:20.141Z,99732.75
2022-09-07T22:48:47.211Z,99732.69
2022-09-07T22:51:14.109Z,99736.09
2022-09-07T22:53:42.604Z,99736.09
2022-09-07T22:56:12.179Z,99729.31
2022-09-07T22:58:38.874Z,99737.00
2022-09-07T23:01:06.702Z,99730.97
2022-09-07T23:03:35.064Z,99728.38
2022-09-07T23:06:02.349Z,99732.59
2022-09-07T23:08:29.725Z,99723.13
2022-09-07T23:11:02.971Z,99715.22
2022-09-07T23:13:29.573Z,99727.19
2022-09-07T23:15:56.250Z,99733.97
2022-09-07T23:18:23.062Z,99727.91
2022-09-07T23:20:49.575Z,99728.75
2022-09-07T23:23:16.397Z,99722.69
2022-09-07T23:25:44.133Z,99712.28
2022-09-07T23:28:12.395Z,99704.47
2022-09-07T23:30:40.554Z,99709.59
2022-09-07T23:33:07.479Z,99711.25
2022-09-07T23:35:34.068Z,99700.19
2022-09-07T23:38:00.591Z,99707.03
2022-09-07T23:40:30.310Z,99703.53
2022-09-07T23:42:56.862Z,99700.03
2022-09-07T23:45:23.619Z,99697.47
2022-09-07T23:47:50.395Z,99701.66
2022-09-07T23:50:16.985Z,99713.41
2022-09-07T23:52:43.716Z,99698.75
2022-09-07T23:55:11.040Z,99697.75
2022-09-07T23:57:38.892Z,99694.41
